Time;durP1;ratioP1;P1;durP2;ratioP2;P2;SDS_P1;SDS_P2;PMS_P1;PMS_P2;Temp;Humidity;BMP_temperature;BMP_pressure;BME280_temperature;BME280_humidity;BME280_pressure;Samples;Min_cycle;Max_cycle;Signal;HPM_P1;HPM_P2
2022/04/21 00:01:28;;;;;;;3.67;2.50;;;10.90;99.90;;;;;;5109964;28;20660;-70
2022/04/21 00:03:55;;;;;;;4.27;2.63;;;10.90;99.90;;;;;;5109775;28;20241;-70
2022/04/21 00:06:22;;;;;;;3.67;2.53;;;10.90;99.90;;;;;;5110001;28;20210;-70
2022/04/21 00:08:48;;;;;;;2.80;2.30;;;10.90;99.90;;;;;;5109825;28;20214;-70
2022/04/21 00:11:27;;;;;;;4.17;2.50;;;10.90;99.90;;;;;;5106604;28;20458;-70
2022/04/21 00:13:55;;;;;;;3.70;2.60;;;10.90;99.90;;;;;;5109678;28;20616;-71
2022/04/21 00:16:22;;;;;;;4.87;2.50;;;10.80;99.90;;;;;;5109203;28;20981;-70
2022/04/21 00:18:48;;;;;;;3.80;2.23;;;10.80;99.90;;;;;;5109538;28;20214;-70
2022/04/21 00:23:25;;;;;;;4.10;2.53;;;10.80;99.90;;;;;;5109347;28;20623;-71
2022/04/21 00:24:07;;;;;;;3.90;2.73;;;10.80;99.90;;;;;;5109354;28;20210;-70
2022/04/21 00:26:33;;;;;;;3.17;2.40;;;10.80;99.90;;;;;;5109180;28;20198;-71
2022/04/21 00:29:01;;;;;;;3.57;2.40;;;10.80;99.90;;;;;;5109269;28;20218;-70
2022/04/21 00:31:28;;;;;;;4.53;3.00;;;10.70;99.90;;;;;;5109997;28;20237;-70
2022/04/21 00:33:56;;;;;;;5.20;2.57;;;10.70;99.90;;;;;;5109025;28;20218;-70
2022/04/21 00:36:23;;;;;;;6.43;2.93;;;10.80;99.90;;;;;;5109408;28;20259;-70
2022/04/21 00:38:49;;;;;;;3.50;2.67;;;10.70;99.90;;;;;;5109071;28;20660;-70
2022/04/21 00:41:16;;;;;;;4.27;2.50;;;10.70;99.90;;;;;;5108998;28;20246;-70
2022/04/21 00:43:43;;;;;;;4.53;2.60;;;10.70;99.90;;;;;;5109460;28;20206;-70
2022/04/21 00:46:23;;;;;;;4.50;2.50;;;10.70;99.90;;;;;;5109478;28;20202;-69
2022/04/21 00:48:50;;;;;;;3.80;2.50;;;10.70;99.90;;;;;;5108995;28;20206;-70
2022/04/21 00:51:17;;;;;;;2.63;2.20;;;10.60;99.90;;;;;;5108880;28;20221;-70
2022/04/21 00:53:45;;;;;;;4.20;2.60;;;10.50;99.90;;;;;;5108772;28;20664;-69
2022/04/21 00:56:24;;;;;;;2.90;2.33;;;10.50;99.90;;;;;;5109238;28;20567;-69
2022/04/21 00:58:51;;;;;;;2.70;2.50;;;10.50;99.90;;;;;;5108897;28;20699;-69
2022/04/21 01:04:01;;;;;;;5.23;2.83;;;10.50;99.90;;;;;;5108291;28;20190;-69
2022/04/21 01:06:28;;;;;;;3.67;2.47;;;10.60;99.90;;;;;;5108770;28;20251;-69
2022/04/21 01:08:55;;;;;;;3.53;2.70;;;10.50;99.90;;;;;;5108717;28;20213;-69
2022/04/21 01:11:22;;;;;;;3.93;2.50;;;10.50;99.90;;;;;;5108938;28;20242;-69
2022/04/21 01:13:49;;;;;;;5.30;2.67;;;10.40;99.90;;;;;;5108890;28;20206;-69
2022/04/21 01:16:18;;;;;;;3.50;2.57;;;10.40;99.90;;;;;;5108760;28;20202;-69
2022/04/21 01:18:45;;;;;;;5.47;3.20;;;10.40;99.90;;;;;;5108526;28;20202;-69
2022/04/21 01:21:22;;;;;;;5.17;3.00;;;10.40;99.90;;;;;;5108184;28;20746;-69
2022/04/21 01:23:49;;;;;;;5.87;2.70;;;10.30;99.90;;;;;;5108531;28;20213;-69
2022/04/21 01:26:18;;;;;;;3.67;2.73;;;10.40;99.90;;;;;;5098919;28;20236;-71
2022/04/21 01:28:45;;;;;;;3.43;3.03;;;10.40;99.90;;;;;;5088125;28;20718;-71
2022/04/21 01:31:22;;;;;;;4.30;3.00;;;10.40;99.90;;;;;;5087818;28;20276;-72
2022/04/21 01:33:50;;;;;;;3.10;2.60;;;10.30;99.90;;;;;;5100060;28;20225;-72
2022/04/21 01:36:19;;;;;;;2.83;2.53;;;10.40;99.90;;;;;;5108506;28;20232;-72
2022/04/21 01:41:31;;;;;;;5.67;2.77;;;10.30;99.90;;;;;;5108165;28;20205;-72
2022/04/21 01:43:58;;;;;;;5.53;2.80;;;10.30;99.90;;;;;;5108389;28;20343;-70
2022/04/21 01:46:25;;;;;;;4.77;2.87;;;10.30;99.90;;;;;;5108200;28;20198;-69
2022/04/21 01:48:51;;;;;;;4.53;3.10;;;10.30;99.90;;;;;;5108114;28;20209;-69
2022/04/21 01:51:18;;;;;;;4.37;2.70;;;10.30;99.90;;;;;;5107946;28;20237;-69
2022/04/21 01:53:44;;;;;;;6.20;3.00;;;10.20;99.90;;;;;;5108356;28;20560;-69
2022/04/21 01:56:16;;;;;;;3.90;2.90;;;10.20;99.90;;;;;;5108164;28;20664;-69
2022/04/21 01:58:44;;;;;;;4.53;3.17;;;10.20;99.90;;;;;;5108816;28;20210;-70
2022/04/21 02:01:20;;;;;;;4.87;2.90;;;10.20;99.90;;;;;;5108143;28;20206;-70
2022/04/21 02:03:47;;;;;;;5.33;2.93;;;10.10;99.90;;;;;;5107516;28;20652;-70
2022/04/21 02:06:23;;;;;;;4.87;2.77;;;10.20;99.90;;;;;;5107626;28;20665;-70
2022/04/21 02:08:49;;;;;;;4.23;2.67;;;10.10;99.90;;;;;;5108216;28;20197;-70
2022/04/21 02:11:22;;;;;;;4.97;3.00;;;10.10;99.90;;;;;;5108024;28;20229;-70
2022/04/21 02:13:49;;;;;;;7.43;2.90;;;10.10;99.90;;;;;;5112099;28;20330;-70
2022/04/21 02:16:25;;;;;;;4.40;2.73;;;10.10;99.90;;;;;;5111817;28;20652;-70
2022/04/21 02:18:51;;;;;;;4.63;2.90;;;10.20;99.90;;;;;;5111649;28;20212;-70
2022/04/21 02:21:24;;;;;;;5.37;3.00;;;10.10;99.90;;;;;;5107880;28;20750;-70
2022/04/21 02:23:51;;;;;;;2.90;2.57;;;10.10;99.90;;;;;;5111805;28;20255;-70
2022/04/21 02:26:17;;;;;;;9.03;3.10;;;10.20;99.90;;;;;;5111793;28;20202;-69
2022/04/21 02:28:45;;;;;;;6.20;3.00;;;10.10;99.90;;;;;;5111842;28;20231;-69
2022/04/21 02:31:21;;;;;;;5.07;3.00;;;10.20;99.90;;;;;;5111367;28;20598;-70
2022/04/21 02:33:48;;;;;;;7.57;3.10;;;10.10;99.90;;;;;;5111467;28;20225;-69
2022/04/21 02:36:30;;;;;;;6.67;3.20;;;10.10;99.90;;;;;;5111525;28;20259;-70
2022/04/21 02:38:56;;;;;;;4.43;3.00;;;10.10;99.90;;;;;;5111630;28;20238;-69
2022/04/21 02:41:23;;;;;;;3.50;2.70;;;10.10;99.90;;;;;;5111856;28;20210;-69
2022/04/21 02:43:51;;;;;;;5.47;2.90;;;10.10;99.90;;;;;;5111263;28;20733;-70
2022/04/21 02:46:18;;;;;;;3.40;2.93;;;10.20;99.90;;;;;;5111618;28;20206;-70
2022/04/21 02:48:45;;;;;;;5.77;3.27;;;10.10;99.90;;;;;;5111338;28;20229;-70
2022/04/21 02:51:20;;;;;;;4.20;3.00;;;10.10;99.90;;;;;;5111171;28;20234;-70
2022/04/21 02:59:17;;;;;;;5.40;3.13;;;10.10;99.90;;;;;;5110579;28;20189;-70
2022/04/21 03:01:44;;;;;;;4.50;3.20;;;10.10;99.90;;;;;;5111162;28;20209;-70
2022/04/21 03:04:10;;;;;;;6.37;3.27;;;10.10;99.90;;;;;;5110373;28;20663;-69
2022/04/21 03:06:37;;;;;;;5.17;3.13;;;10.10;99.90;;;;;;5111255;28;20343;-69
2022/04/21 03:09:04;;;;;;;7.97;2.97;;;10.10;99.90;;;;;;5111160;28;20214;-69
2022/04/21 03:11:30;;;;;;;5.87;3.53;;;10.10;99.90;;;;;;5093707;28;20242;-69
2022/04/21 03:14:00;;;;;;;5.80;3.03;;;10.10;99.90;;;;;;5088813;28;20207;-70
2022/04/21 03:16:28;;;;;;;4.77;2.73;;;10.10;99.90;;;;;;5088753;28;20214;-69
2022/04/21 03:18:54;;;;;;;6.10;3.30;;;9.90;99.90;;;;;;5100346;28;20206;-70
2022/04/21 03:24:21;;;;;;;3.50;3.10;;;10.00;99.90;;;;;;5104017;28;20205;-69
2022/04/21 03:26:48;;;;;;;8.97;3.23;;;10.00;99.90;;;;;;5108317;28;20217;-69
2022/04/21 03:29:15;;;;;;;4.93;3.53;;;9.90;99.90;;;;;;5108388;27;20206;-70
2022/04/21 03:32:29;;;;;;;5.67;3.50;;;10.00;99.90;;;;;;5108274;28;20229;-69
2022/04/21 03:34:59;;;;;;;5.93;3.43;;;10.00;99.90;;;;;;5108183;28;20235;-70
2022/04/21 03:37:29;;;;;;;3.53;3.10;;;9.90;99.90;;;;;;5108575;28;20556;-69
2022/04/21 03:39:56;;;;;;;5.80;3.20;;;9.90;99.90;;;;;;5108582;28;20993;-70
2022/04/21 03:42:25;;;;;;;9.00;3.73;;;9.90;99.90;;;;;;5108509;28;20216;-70
2022/04/21 03:44:52;;;;;;;6.47;3.57;;;9.90;99.90;;;;;;5108521;28;20214;-70
2022/04/21 03:47:18;;;;;;;6.80;3.33;;;9.90;99.90;;;;;;5107770;28;20212;-70
2022/04/21 03:49:45;;;;;;;8.27;4.10;;;9.90;99.90;;;;;;5108279;28;20206;-68
2022/04/21 03:52:14;;;;;;;7.30;3.63;;;9.90;99.90;;;;;;5108228;28;20263;-69
2022/04/21 03:54:41;;;;;;;5.03;3.43;;;9.90;99.90;;;;;;5110090;28;20198;-68
2022/04/21 03:57:08;;;;;;;5.13;3.73;;;10.00;99.90;;;;;;5096197;28;20214;-68
2022/04/21 03:59:36;;;;;;;4.30;3.70;;;9.90;99.90;;;;;;5092610;28;20324;-68
2022/04/21 04:02:03;;;;;;;4.00;3.60;;;9.90;99.90;;;;;;5109427;27;20209;-68
2022/04/21 04:04:30;;;;;;;10.70;4.03;;;9.90;99.90;;;;;;5107851;28;20202;-68
2022/04/21 04:12:36;;;;;;;5.77;3.50;;;9.80;99.90;;;;;;5109479;28;20213;-68
2022/04/21 04:15:04;;;;;;;6.63;3.80;;;9.80;99.90;;;;;;5109876;28;20202;-69
2022/04/21 04:17:31;;;;;;;5.57;3.50;;;9.80;99.90;;;;;;5109674;28;20293;-68
2022/04/21 04:19:58;;;;;;;6.50;3.77;;;9.80;99.90;;;;;;5109792;28;20239;-68
2022/04/21 04:22:24;;;;;;;6.90;3.33;;;9.90;99.90;;;;;;5109215;28;20242;-69
2022/04/21 04:24:54;;;;;;;8.90;3.80;;;9.80;99.90;;;;;;5109698;28;20198;-68
2022/04/21 04:27:21;;;;;;;7.10;3.87;;;9.70;99.90;;;;;;5109588;28;20198;-69
2022/04/21 04:29:48;;;;;;;6.37;3.97;;;9.70;99.90;;;;;;5109523;28;20247;-68
2022/04/21 04:32:15;;;;;;;5.37;3.50;;;9.70;99.90;;;;;;5109156;28;20294;-69
2022/04/21 04:34:42;;;;;;;4.43;3.70;;;9.70;99.90;;;;;;5109481;28;20206;-69
2022/04/21 04:37:09;;;;;;;7.37;3.63;;;9.70;99.90;;;;;;5109325;28;20206;-68
2022/04/21 04:39:35;;;;;;;5.53;3.63;;;9.70;99.90;;;;;;5109448;28;20206;-68
2022/04/21 04:42:20;;;;;;;5.43;3.70;;;9.90;99.90;;;;;;5109033;28;20211;-68
2022/04/21 04:44:49;;;;;;;5.07;3.60;;;9.80;99.90;;;;;;5109177;28;20670;-68
2022/04/21 04:47:14;;;;;;;8.07;3.70;;;9.80;99.90;;;;;;5108958;28;20282;-69
2022/04/21 04:49:42;;;;;;;5.43;3.50;;;9.80;99.90;;;;;;5108998;28;20688;-68
2022/04/21 04:52:09;;;;;;;6.90;4.03;;;9.80;99.90;;;;;;5108463;28;20701;-68
2022/04/21 04:54:35;;;;;;;6.47;3.83;;;9.80;99.90;;;;;;5109137;28;20206;-68
2022/04/21 04:57:04;;;;;;;5.03;3.47;;;9.80;99.90;;;;;;5108882;28;20209;-68
2022/04/21 04:59:30;;;;;;;7.93;3.50;;;9.80;99.90;;;;;;5109169;28;20206;-69
2022/04/21 05:01:57;;;;;;;8.87;4.20;;;9.90;99.90;;;;;;5109138;28;20263;-68
2022/04/21 05:04:25;;;;;;;4.53;3.27;;;9.80;99.90;;;;;;5108599;28;20210;-68
2022/04/21 05:06:53;;;;;;;4.50;3.47;;;9.80;99.90;;;;;;5108978;28;20205;-68
2022/04/21 05:09:21;;;;;;;4.37;3.40;;;9.80;99.90;;;;;;5108770;28;20214;-68
2022/04/21 05:11:50;;;;;;;5.10;4.00;;;9.80;99.90;;;;;;5108880;28;20230;-68
2022/04/21 05:14:19;;;;;;;6.53;3.93;;;9.80;99.90;;;;;;5108847;28;20643;-69
2022/04/21 05:16:45;;;;;;;6.73;4.00;;;9.80;99.90;;;;;;5108840;28;20293;-69
2022/04/21 05:19:13;;;;;;;5.97;3.77;;;9.80;99.90;;;;;;5108451;28;20547;-69
2022/04/21 05:21:41;;;;;;;9.50;4.00;;;9.80;99.90;;;;;;5108730;28;20237;-69
2022/04/21 05:24:10;;;;;;;5.47;3.77;;;9.80;99.90;;;;;;5108656;28;20255;-69
2022/04/21 05:26:37;;;;;;;8.47;3.63;;;9.90;99.90;;;;;;5108543;28;20238;-68
2022/04/21 05:30:55;;;;;;;6.47;3.40;;;9.90;99.90;;;;;;5108591;28;20293;-69
2022/04/21 05:31:55;;;;;;;5.03;3.47;;;9.90;99.90;;;;;;5108350;28;20218;-69
2022/04/21 05:34:22;;;;;;;6.47;3.90;;;9.90;99.90;;;;;;5108110;28;20226;-68
2022/04/21 05:36:49;;;;;;;4.07;3.50;;;9.90;99.90;;;;;;5108603;28;20214;-68
2022/04/21 05:39:16;;;;;;;5.37;3.67;;;10.00;99.90;;;;;;5108393;28;20198;-69
2022/04/21 05:41:44;;;;;;;8.40;3.70;;;10.00;99.90;;;;;;5107921;28;20551;-68
2022/04/21 05:44:12;;;;;;;5.07;3.37;;;10.00;99.90;;;;;;5108511;28;20205;-69
2022/04/21 05:46:39;;;;;;;4.93;3.60;;;10.00;99.90;;;;;;5108168;28;20259;-68
2022/04/21 05:49:08;;;;;;;7.20;4.27;;;10.10;99.90;;;;;;5107179;28;20252;-68
2022/04/21 05:51:35;;;;;;;5.50;3.27;;;10.10;99.90;;;;;;5105581;28;20237;-69
2022/04/21 05:54:05;;;;;;;5.57;3.37;;;10.10;99.90;;;;;;5108284;28;20247;-69
2022/04/21 05:56:33;;;;;;;8.17;3.70;;;10.10;99.90;;;;;;5108487;28;20194;-68
2022/04/21 05:59:00;;;;;;;8.70;3.63;;;10.10;99.90;;;;;;5108201;28;20198;-69
2022/04/21 06:01:27;;;;;;;6.67;3.30;;;10.10;99.90;;;;;;5108054;28;20729;-69
2022/04/21 06:03:54;;;;;;;6.80;4.10;;;10.10;99.90;;;;;;5108002;28;20221;-68
2022/04/21 06:06:50;;;;;;;6.67;3.60;;;10.10;99.90;;;;;;5107947;28;20213;-68
2022/04/21 06:12:39;;;;;;;5.17;3.60;;;10.00;99.90;;;;;;5124949;28;20652;-69
2022/04/21 06:15:06;;;;;;;6.63;4.00;;;10.00;99.90;;;;;;5128611;28;20239;-68
2022/04/21 06:17:33;;;;;;;5.13;3.73;;;10.00;99.90;;;;;;5128280;28;20206;-69
2022/04/21 06:20:00;;;;;;;8.20;3.73;;;10.00;99.90;;;;;;5128517;28;20206;-69
2022/04/21 06:22:28;;;;;;;8.40;3.83;;;10.00;99.90;;;;;;5112207;28;20244;-68
2022/04/21 06:24:54;;;;;;;4.53;3.60;;;10.00;99.90;;;;;;5108006;28;20206;-68
2022/04/21 06:27:21;;;;;;;5.83;3.80;;;10.00;99.90;;;;;;5107792;28;20283;-69
2022/04/21 06:29:48;;;;;;;5.47;3.63;;;10.00;99.90;;;;;;5107996;28;20210;-68
2022/04/21 06:32:14;;;;;;;6.13;3.60;;;10.00;99.90;;;;;;5107821;28;20230;-68
2022/04/21 06:34:41;;;;;;;6.37;3.60;;;10.10;99.90;;;;;;5107956;28;20203;-68
2022/04/21 06:37:08;;;;;;;8.40;4.00;;;10.10;99.90;;;;;;5107847;28;20202;-68
2022/04/21 06:39:36;;;;;;;7.30;3.57;;;10.00;99.90;;;;;;5107912;28;20251;-68
2022/04/21 06:42:02;;;;;;;7.23;3.57;;;10.10;99.90;;;;;;5108022;28;20202;-69
2022/04/21 06:49:57;;;;;;;6.53;3.70;;;10.20;99.90;;;;;;5107457;28;20276;-68
2022/04/21 06:52:25;;;;;;;7.97;3.90;;;10.20;99.90;;;;;;5107732;28;20234;-68
2022/04/21 06:54:53;;;;;;;4.67;3.20;;;10.20;99.90;;;;;;5107587;28;20212;-68
2022/04/21 06:57:20;;;;;;;3.90;3.57;;;10.30;99.90;;;;;;5107711;28;20272;-68
2022/04/21 06:59:47;;;;;;;3.97;3.57;;;10.30;99.90;;;;;;5109400;28;20213;-68
2022/04/21 07:02:14;;;;;;;9.87;5.10;;;10.30;99.90;;;;;;5111152;28;20206;-69
2022/04/21 07:04:40;;;;;;;8.63;3.70;;;10.40;99.90;;;;;;5111149;28;20218;-68
2022/04/21 07:07:07;;;;;;;6.50;3.70;;;10.30;99.90;;;;;;5111097;28;20248;-68
2022/04/21 07:09:34;;;;;;;6.93;4.17;;;10.30;99.90;;;;;;5111401;28;20544;-68
2022/04/21 07:12:02;;;;;;;6.23;3.87;;;10.40;99.90;;;;;;5111068;28;20234;-68
2022/04/21 07:14:29;;;;;;;4.27;3.60;;;10.40;99.90;;;;;;5111032;28;20213;-69
2022/04/21 07:16:58;;;;;;;4.80;3.53;;;10.40;99.90;;;;;;5111198;28;20217;-68
2022/04/21 07:19:24;;;;;;;8.87;4.27;;;10.40;99.90;;;;;;5110743;28;20209;-68
2022/04/21 07:21:51;;;;;;;5.43;3.40;;;10.40;99.90;;;;;;5110209;28;20253;-68
2022/04/21 07:24:18;;;;;;;5.17;3.80;;;10.40;99.90;;;;;;5110813;28;20618;-69
2022/04/21 07:26:44;;;;;;;7.40;4.10;;;10.50;99.90;;;;;;5110523;28;20237;-68
2022/04/21 07:29:12;;;;;;;6.10;3.80;;;10.50;99.90;;;;;;5110811;28;20205;-68
2022/04/21 07:31:40;;;;;;;5.43;4.07;;;10.50;99.90;;;;;;5110813;28;20628;-69
2022/04/21 07:34:07;;;;;;;7.37;3.70;;;10.40;99.90;;;;;;5110304;28;20226;-69
2022/04/21 07:36:34;;;;;;;6.97;4.23;;;10.50;99.90;;;;;;5110214;28;20194;-68
2022/04/21 07:39:01;;;;;;;7.50;3.90;;;10.40;99.90;;;;;;5110510;28;20230;-68
2022/04/21 07:41:27;;;;;;;7.77;4.23;;;10.50;99.90;;;;;;5110501;28;20345;-68
2022/04/21 07:43:54;;;;;;;7.57;3.93;;;10.50;99.90;;;;;;5110449;28;20206;-68
2022/04/21 07:46:22;;;;;;;9.87;4.60;;;10.50;99.90;;;;;;5110446;28;20231;-69
2022/04/21 07:51:33;;;;;;;6.97;4.20;;;10.50;99.90;;;;;;5110110;28;20233;-68
2022/04/21 07:54:00;;;;;;;5.73;3.67;;;10.50;99.90;;;;;;5110190;28;20259;-69
2022/04/21 07:56:27;;;;;;;6.93;4.10;;;10.60;99.90;;;;;;5110011;28;20213;-68
2022/04/21 07:58:53;;;;;;;5.93;4.13;;;10.60;99.90;;;;;;5110363;28;20244;-68
2022/04/21 08:01:21;;;;;;;8.97;4.40;;;10.50;99.90;;;;;;5110010;28;20628;-68
2022/04/21 08:03:48;;;;;;;5.93;3.87;;;10.60;99.90;;;;;;5109899;28;20255;-68
2022/04/21 08:06:15;;;;;;;6.47;4.30;;;10.60;99.90;;;;;;5110228;28;20198;-68
2022/04/21 08:08:41;;;;;;;6.20;4.80;;;10.50;99.90;;;;;;5109930;28;20661;-68
2022/04/21 08:11:08;;;;;;;7.90;4.40;;;10.60;99.90;;;;;;5109483;28;20275;-68
2022/04/21 08:13:35;;;;;;;6.80;3.77;;;10.70;99.90;;;;;;5109891;28;20281;-68
2022/04/21 08:16:02;;;;;;;5.27;4.07;;;10.70;99.90;;;;;;5109600;28;20742;-68
2022/04/21 08:18:30;;;;;;;7.03;3.70;;;10.70;99.90;;;;;;5109648;28;20206;-68
2022/04/21 08:20:58;;;;;;;5.77;4.27;;;10.80;99.90;;;;;;5109581;28;20274;-68
2022/04/21 08:23:25;;;;;;;10.70;4.27;;;10.70;99.90;;;;;;5109667;28;20210;-68
2022/04/21 08:34:23;;;;;;;10.00;4.90;;;10.70;99.90;;;;;;5062419;28;20210;-68
2022/04/21 08:36:50;;;;;;;6.47;4.60;;;10.60;99.90;;;;;;5094197;28;20202;-68
2022/04/21 08:39:16;;;;;;;7.13;4.10;;;10.60;99.90;;;;;;5109461;28;20205;-69
2022/04/21 08:41:48;;;;;;;10.50;4.43;;;10.70;99.90;;;;;;5109372;28;20210;-69
2022/04/21 08:44:19;;;;;;;9.77;5.10;;;10.80;99.90;;;;;;5109171;28;20596;-68
2022/04/21 08:46:47;;;;;;;9.67;4.37;;;10.70;99.90;;;;;;5109418;28;20633;-68
2022/04/21 08:49:16;;;;;;;6.03;3.97;;;10.80;99.90;;;;;;5109276;28;20217;-69
2022/04/21 08:51:44;;;;;;;5.93;4.43;;;10.80;99.90;;;;;;5109156;28;20836;-68
2022/04/21 08:54:11;;;;;;;7.63;4.47;;;10.80;99.90;;;;;;5109375;28;20202;-68
2022/04/21 08:56:38;;;;;;;7.07;4.97;;;10.80;99.90;;;;;;5109201;28;20206;-69
2022/04/21 08:59:04;;;;;;;5.93;4.40;;;10.80;99.90;;;;;;5109150;28;20263;-68
2022/04/21 09:01:31;;;;;;;11.13;4.93;;;10.80;99.90;;;;;;5109168;28;20212;-69
2022/04/21 09:03:58;;;;;;;5.97;4.73;;;10.90;99.90;;;;;;5108860;28;20217;-68
2022/04/21 09:06:24;;;;;;;7.33;4.97;;;10.80;99.90;;;;;;5109123;28;20202;-68
2022/04/21 09:09:17;;;;;;;5.13;4.53;;;10.80;99.90;;;;;;5108952;28;20202;-68
2022/04/21 09:11:45;;;;;;;6.03;4.63;;;10.80;99.90;;;;;;5108876;28;20396;-69
2022/04/21 09:14:16;;;;;;;8.50;4.37;;;10.90;99.90;;;;;;5108791;28;20210;-68
2022/04/21 09:16:43;;;;;;;5.63;4.57;;;10.90;99.90;;;;;;5108837;28;20251;-68
2022/04/21 09:19:09;;;;;;;5.93;4.73;;;11.00;99.90;;;;;;5108540;28;20202;-68
2022/04/21 09:21:37;;;;;;;7.70;4.90;;;11.10;99.90;;;;;;5107552;28;20250;-69
2022/04/21 09:26:57;;;;;;;8.30;5.00;;;11.20;99.90;;;;;;5162699;27;21338;-68
2022/04/21 09:29:30;;;;;;;9.33;5.00;;;11.30;99.90;;;;;;5146595;27;20196;-70
2022/04/21 09:31:58;;;;;;;6.83;4.73;;;11.30;99.90;;;;;;5147013;27;20203;-70
2022/04/21 09:34:26;;;;;;;5.77;5.20;;;11.50;99.90;;;;;;5134314;27;20235;-70
2022/04/21 09:36:55;;;;;;;10.63;5.87;;;11.50;99.90;;;;;;5125727;28;20205;-68
2022/04/21 09:39:22;;;;;;;6.60;5.30;;;11.60;99.90;;;;;;5125634;27;20296;-70
2022/04/21 09:41:53;;;;;;;9.27;4.80;;;11.60;99.90;;;;;;5125835;27;20248;-68
2022/04/21 09:47:06;;;;;;;8.50;4.93;;;11.70;99.90;;;;;;5125609;28;20235;-68
2022/04/21 09:49:36;;;;;;;5.27;4.50;;;11.70;99.90;;;;;;5125688;28;20233;-68
2022/04/21 09:52:04;;;;;;;8.10;5.37;;;11.90;99.90;;;;;;5125905;28;20225;-68
2022/04/21 09:54:30;;;;;;;7.80;4.33;;;11.80;99.90;;;;;;5125878;28;20202;-68
2022/04/21 09:56:58;;;;;;;7.80;5.00;;;11.80;99.90;;;;;;5125628;28;20214;-68
2022/04/21 09:59:26;;;;;;;7.53;4.60;;;11.90;99.90;;;;;;5125670;28;20212;-68
2022/04/21 10:01:53;;;;;;;5.37;4.83;;;11.90;99.90;;;;;;5125661;28;20206;-68
2022/04/21 10:04:20;;;;;;;6.93;5.23;;;11.90;99.90;;;;;;5125257;28;20667;-68
2022/04/21 10:06:48;;;;;;;8.63;5.03;;;11.90;99.90;;;;;;5125452;28;20272;-68
2022/04/21 10:09:16;;;;;;;5.80;5.20;;;12.00;99.90;;;;;;5125468;28;20213;-68
2022/04/21 10:11:43;;;;;;;7.37;4.93;;;12.00;99.90;;;;;;5125736;28;20206;-68
2022/04/21 10:14:12;;;;;;;8.27;5.20;;;12.00;99.90;;;;;;5125471;28;20297;-68
2022/04/21 10:16:42;;;;;;;8.90;5.20;;;12.00;99.90;;;;;;5125588;28;20259;-68
2022/04/21 10:19:09;;;;;;;8.60;5.37;;;11.90;99.90;;;;;;5124723;27;20241;-68
2022/04/21 10:21:42;;;;;;;6.93;4.80;;;11.90;99.90;;;;;;5116360;28;20221;-68
2022/04/21 10:24:12;;;;;;;9.40;5.30;;;11.90;99.90;;;;;;5104285;28;20251;-68
2022/04/21 10:26:40;;;;;;;5.97;5.03;;;11.80;99.90;;;;;;5116580;28;20643;-68
2022/04/21 10:29:11;;;;;;;5.93;4.83;;;11.80;99.90;;;;;;5124459;28;20205;-69
2022/04/21 10:31:49;;;;;;;5.67;5.17;;;11.90;99.90;;;;;;5124829;28;20224;-68
2022/04/21 10:34:32;;;;;;;10.93;5.63;;;11.90;99.90;;;;;;5124800;28;20201;-68
2022/04/21 10:37:08;;;;;;;8.43;5.03;;;11.80;99.90;;;;;;5118316;28;20290;-68
2022/04/21 10:39:34;;;;;;;5.73;5.10;;;11.80;99.90;;;;;;5111424;28;20612;-68
2022/04/21 10:42:21;;;;;;;7.70;5.30;;;11.80;99.90;;;;;;5111146;28;20249;-68
2022/04/21 10:44:49;;;;;;;6.10;5.50;;;11.80;99.90;;;;;;5111147;28;20194;-70
2022/04/21 10:48:02;;;;;;;10.10;5.30;;;11.80;99.90;;;;;;5110974;28;20230;-70
2022/04/21 10:50:32;;;;;;;6.17;5.60;;;11.80;99.90;;;;;;5110735;28;20732;-70
2022/04/21 10:58:54;;;;;;;7.80;6.10;;;11.80;99.90;;;;;;5110863;28;20188;-70
2022/04/21 11:01:35;;;;;;;7.33;5.63;;;11.90;99.90;;;;;;5110956;28;20210;-68
2022/04/21 11:04:08;;;;;;;5.90;5.37;;;11.90;99.90;;;;;;5110240;28;20721;-68
2022/04/21 11:06:40;;;;;;;6.90;5.70;;;11.90;99.90;;;;;;5110763;28;20218;-68
2022/04/21 11:09:08;;;;;;;10.37;6.23;;;11.80;99.90;;;;;;5110675;28;20246;-68
2022/04/21 11:11:47;;;;;;;6.10;5.57;;;11.80;99.90;;;;;;5110824;28;20221;-68
2022/04/21 11:14:31;;;;;;;6.90;6.23;;;11.90;99.90;;;;;;5110739;28;20278;-68
2022/04/21 11:16:59;;;;;;;6.97;5.77;;;12.00;99.90;;;;;;5110593;28;20281;-68
2022/04/21 11:19:35;;;;;;;5.87;5.37;;;12.00;99.90;;;;;;5110133;27;20729;-68
2022/04/21 11:22:04;;;;;;;7.47;6.13;;;12.00;99.90;;;;;;5110157;28;20202;-68
2022/04/21 11:25:02;;;;;;;7.80;5.67;;;12.00;99.90;;;;;;5110368;28;20213;-69
2022/04/21 11:27:29;;;;;;;6.30;5.70;;;12.10;99.90;;;;;;5109766;28;20631;-68
2022/04/21 11:30:01;;;;;;;8.00;6.60;;;12.20;99.90;;;;;;5104476;28;20207;-68
2022/04/21 11:32:27;;;;;;;8.10;6.70;;;12.30;99.90;;;;;;5089766;28;21081;-68
2022/04/21 11:35:04;;;;;;;7.30;6.60;;;12.50;99.90;;;;;;5089569;28;20260;-68
2022/04/21 11:37:48;;;;;;;6.33;5.67;;;12.60;99.90;;;;;;5089982;28;20210;-68
2022/04/21 11:40:29;;;;;;;6.50;5.80;;;12.70;99.90;;;;;;5089805;28;20242;-68
2022/04/21 11:42:57;;;;;;;7.23;6.73;;;12.80;99.90;;;;;;5089230;28;20190;-68
2022/04/21 11:45:26;;;;;;;7.03;6.17;;;12.90;99.90;;;;;;5089631;28;20214;-68
2022/04/21 11:47:53;;;;;;;6.47;5.97;;;13.00;99.90;;;;;;5088923;28;20202;-68
2022/04/21 11:50:26;;;;;;;6.60;5.97;;;13.10;99.90;;;;;;5088592;28;20568;-68
2022/04/21 11:52:55;;;;;;;5.97;5.53;;;13.10;99.90;;;;;;5108654;28;20298;-68
2022/04/21 11:55:23;;;;;;;6.63;6.00;;;13.10;99.90;;;;;;5106375;28;20213;-68
2022/04/21 11:57:50;;;;;;;6.90;6.20;;;13.10;99.90;;;;;;5089479;28;20292;-68
2022/04/21 12:06:27;;;;;;;6.20;5.60;;;13.20;99.90;;;;;;5089314;28;20206;-68
2022/04/21 12:08:38;;;;;;;11.90;6.60;;;13.20;99.90;;;;;;5089099;28;20194;-68
2022/04/21 12:11:10;;;;;;;7.23;6.03;;;13.10;99.90;;;;;;5088979;28;20629;-68
2022/04/21 12:13:37;;;;;;;6.20;5.60;;;13.10;99.90;;;;;;5088870;28;20242;-68
2022/04/21 12:16:35;;;;;;;6.00;5.37;;;13.00;99.90;;;;;;5088994;28;20215;-68
2022/04/21 12:19:10;;;;;;;5.43;5.00;;;13.00;99.90;;;;;;5088411;28;20566;-68
2022/04/21 12:21:39;;;;;;;6.07;5.10;;;13.00;99.90;;;;;;5097730;28;20210;-68
2022/04/21 12:24:13;;;;;;;5.30;4.80;;;12.90;99.90;;;;;;5108854;28;20214;-68
2022/04/21 12:26:46;;;;;;;5.57;5.07;;;12.80;99.90;;;;;;5108422;28;20249;-68
2022/04/21 12:29:13;;;;;;;5.70;4.80;;;12.90;99.90;;;;;;5109073;28;20641;-68
2022/04/21 12:31:44;;;;;;;5.70;5.10;;;12.90;99.90;;;;;;5108792;28;20792;-68
2022/04/21 12:34:12;;;;;;;5.77;5.37;;;12.80;99.90;;;;;;5108958;28;20241;-68
2022/04/21 12:36:50;;;;;;;5.83;5.20;;;12.90;99.90;;;;;;5109049;28;20202;-68
2022/04/21 12:39:17;;;;;;;5.27;4.77;;;12.90;99.90;;;;;;5108683;28;20570;-68
2022/04/21 12:41:45;;;;;;;6.40;5.30;;;12.90;99.90;;;;;;5109301;28;20248;-68
2022/04/21 12:44:12;;;;;;;5.47;4.97;;;13.00;99.90;;;;;;5109012;28;20206;-68
2022/04/21 12:46:40;;;;;;;7.20;5.20;;;12.90;99.90;;;;;;5108630;28;20691;-68
2022/04/21 12:49:08;;;;;;;5.00;4.50;;;13.00;99.90;;;;;;5107024;28;20210;-68
2022/04/21 12:51:35;;;;;;;6.33;4.73;;;13.00;99.90;;;;;;5108887;28;20286;-68
2022/04/21 12:54:03;;;;;;;8.10;5.47;;;13.00;99.90;;;;;;5108528;28;20198;-68
2022/04/21 12:56:34;;;;;;;5.20;4.77;;;13.00;99.90;;;;;;5108656;28;20214;-68
2022/04/21 12:59:01;;;;;;;5.73;5.20;;;13.00;99.90;;;;;;5108610;28;20206;-68
2022/04/21 13:01:28;;;;;;;6.53;5.87;;;13.00;99.90;;;;;;5108640;28;20689;-68
2022/04/21 13:03:55;;;;;;;5.90;5.20;;;12.90;99.90;;;;;;5108391;28;20225;-68
2022/04/21 13:06:29;;;;;;;5.60;5.10;;;12.90;99.90;;;;;;5108089;28;20995;-68
2022/04/21 13:08:56;;;;;;;6.33;5.10;;;12.90;99.90;;;;;;5091413;28;20661;-68
2022/04/21 13:11:24;;;;;;;6.57;6.00;;;12.80;99.90;;;;;;5108674;28;20198;-68
2022/04/21 13:13:52;;;;;;;7.07;5.77;;;12.70;99.90;;;;;;5107381;28;20201;-68
2022/04/21 13:16:19;;;;;;;6.50;5.33;;;12.70;99.90;;;;;;5106737;28;20209;-67
2022/04/21 13:18:47;;;;;;;5.23;4.73;;;12.60;99.90;;;;;;5099928;28;20268;-68
2022/04/21 13:23:57;;;;;;;6.77;6.00;;;12.60;99.90;;;;;;5087786;28;20704;-68
2022/04/21 13:26:28;;;;;;;7.43;5.20;;;12.60;99.90;;;;;;5104617;28;20267;-68
2022/04/21 13:28:57;;;;;;;6.67;5.10;;;12.50;99.90;;;;;;5105752;28;20389;-68
2022/04/21 13:34:09;;;;;;;5.90;5.30;;;12.60;99.90;;;;;;5105675;28;20213;-68
2022/04/21 13:36:36;;;;;;;5.23;4.80;;;12.60;99.90;;;;;;5090908;28;20202;-68
2022/04/21 13:39:03;;;;;;;5.67;5.10;;;12.60;99.90;;;;;;5106655;28;20988;-68
2022/04/21 13:41:31;;;;;;;6.17;5.67;;;12.60;99.90;;;;;;5106302;28;20198;-68
2022/04/21 13:43:58;;;;;;;6.10;5.47;;;12.70;99.90;;;;;;5105746;28;20275;-68
2022/04/21 13:46:25;;;;;;;5.83;5.43;;;12.70;99.90;;;;;;5094042;28;20343;-68
2022/04/21 13:48:52;;;;;;;6.27;5.03;;;12.70;99.90;;;;;;5085232;28;20210;-68
2022/04/21 13:51:18;;;;;;;5.23;4.73;;;12.70;99.90;;;;;;5091411;28;20213;-68
2022/04/21 13:53:45;;;;;;;6.43;4.33;;;12.80;99.90;;;;;;5105422;28;20737;-67
2022/04/21 13:56:11;;;;;;;4.40;4.10;;;12.80;99.90;;;;;;5095717;28;20214;-71
2022/04/21 13:58:39;;;;;;;4.80;4.17;;;12.70;99.90;;;;;;5086031;28;20234;-68
2022/04/21 14:01:06;;;;;;;4.77;4.27;;;12.70;99.90;;;;;;5085387;28;20252;-68